sensor_id;sensor_type;location;lat;lon;timestamp;temperature;humidity
3770;DHT22;1900;48.890;9.190;2023-04-15T00:02:23;14.60;45.20
3770;DHT22;1900;48.890;9.190;2023-04-15T00:04:49;14.50;45.10
3770;DHT22;1900;48.890;9.190;2023-04-15T00:07:15;14.60;45.20
3770;DHT22;1900;48.890;9.190;2023-04-15T00:09:41;14.50;45.10
3770;DHT22;1900;48.890;9.190;2023-04-15T00:12:07;14.40;45.00
3770;DHT22;1900;48.890;9.190;2023-04-15T00:14:36;14.40;45.00
3770;DHT22;1900;48.890;9.190;2023-04-15T00:17:02;14.40;45.00
3770;DHT22;1900;48.890;9.190;2023-04-15T00:19:31;14.40;45.10
3770;DHT22;1900;48.890;9.190;2023-04-15T00:21:57;14.30;45.00
3770;DHT22;1900;48.890;9.190;2023-04-15T00:24:23;14.30;45.00
3770;DHT22;1900;48.890;9.190;2023-04-15T00:26:48;14.30;45.00
3770;DHT22;1900;48.890;9.190;2023-04-15T00:29:14;14.30;45.10
3770;DHT22;1900;48.890;9.190;2023-04-15T00:31:40;14.20;45.00
3770;DHT22;1900;48.890;9.190;2023-04-15T00:34:06;14.20;45.00
3770;DHT22;1900;48.890;9.190;2023-04-15T00:36:32;14.20;44.90
3770;DHT22;1900;48.890;9.190;2023-04-15T00:38:59;14.20;44.90
3770;DHT22;1900;48.890;9.190;2023-04-15T00:41:25;14.10;44.80
3770;DHT22;1900;48.890;9.190;2023-04-15T00:43:51;14.10;44.80
3770;DHT22;1900;48.890;9.190;2023-04-15T00:46:18;14.00;44.80
3770;DHT22;1900;48.890;9.190;2023-04-15T00:48:46;14.00;44.80
3770;DHT22;1900;48.890;9.190;2023-04-15T00:51:12;14.00;44.90
3770;DHT22;1900;48.890;9.190;2023-04-15T00:53:38;14.00;45.00
3770;DHT22;1900;48.890;9.190;2023-04-15T00:56:06;13.90;44.80
3770;DHT22;1900;48.890;9.190;2023-04-15T00:58:33;13.90;44.80
3770;DHT22;1900;48.890;9.190;2023-04-15T01:00:58;13.90;44.80
3770;DHT22;1900;48.890;9.190;2023-04-15T01:03:24;13.90;44.90
3770;DHT22;1900;48.890;9.190;2023-04-15T01:05:50;13.80;44.80
3770;DHT22;1900;48.890;9.190;2023-04-15T01:08:26;13.80;44.80
3770;DHT22;1900;48.890;9.190;2023-04-15T01:10:54;13.80;44.80
3770;DHT22;1900;48.890;9.190;2023-04-15T01:13:22;13.80;44.70
3770;DHT22;1900;48.890;9.190;2023-04-15T01:15:48;13.70;44.60
3770;DHT22;1900;48.890;9.190;2023-04-15T01:18:14;13.70;44.60
3770;DHT22;1900;48.890;9.190;2023-04-15T01:20:40;13.60;44.60
3770;DHT22;1900;48.890;9.190;2023-04-15T01:23:06;13.60;44.60
3770;DHT22;1900;48.890;9.190;2023-04-15T01:25:32;13.60;44.70
3770;DHT22;1900;48.890;9.190;2023-04-15T01:27:58;13.60;44.70
3770;DHT22;1900;48.890;9.190;2023-04-15T01:30:27;13.50;44.60
3770;DHT22;1900;48.890;9.190;2023-04-15T01:32:53;13.50;44.60
3770;DHT22;1900;48.890;9.190;2023-04-15T01:35:19;13.50;44.70
3770;DHT22;1900;48.890;9.190;2023-04-15T01:37:45;13.40;44.60
3770;DHT22;1900;48.890;9.190;2023-04-15T01:40:11;13.40;44.60
3770;DHT22;1900;48.890;9.190;2023-04-15T01:42:38;13.40;44.70
3770;DHT22;1900;48.890;9.190;2023-04-15T01:45:04;13.40;44.70
3770;DHT22;1900;48.890;9.190;2023-04-15T01:47:31;13.40;44.70
3770;DHT22;1900;48.890;9.190;2023-04-15T01:49:58;13.30;44.50
3770;DHT22;1900;48.890;9.190;2023-04-15T01:52:23;13.30;44.50
3770;DHT22;1900;48.890;9.190;2023-04-15T01:54:50;13.30;44.50
3770;DHT22;1900;48.890;9.190;2023-04-15T01:57:17;13.20;44.40
3770;DHT22;1900;48.890;9.190;2023-04-15T01:59:43;13.20;44.40
3770;DHT22;1900;48.890;9.190;2023-04-15T02:02:09;13.20;44.50
3770;DHT22;1900;48.890;9.190;2023-04-15T02:04:35;13.20;44.50
3770;DHT22;1900;48.890;9.190;2023-04-15T02:07:00;13.10;44.40
3770;DHT22;1900;48.890;9.190;2023-04-15T02:09:26;13.10;45.10
3770;DHT22;1900;48.890;9.190;2023-04-15T02:11:52;13.10;44.50
3770;DHT22;1900;48.890;9.190;2023-04-15T02:14:20;13.00;44.50
3770;DHT22;1900;48.890;9.190;2023-04-15T02:16:46;13.00;44.50
3770;DHT22;1900;48.890;9.190;2023-04-15T02:19:15;13.00;44.60
3770;DHT22;1900;48.890;9.190;2023-04-15T02:21:40;13.00;44.60
3770;DHT22;1900;48.890;9.190;2023-04-15T02:24:07;13.00;44.60
3770;DHT22;1900;48.890;9.190;2023-04-15T02:26:32;12.90;44.50
3770;DHT22;1900;48.890;9.190;2023-04-15T02:28:58;12.90;44.40
3770;DHT22;1900;48.890;9.190;2023-04-15T02:31:24;12.90;45.10
3770;DHT22;1900;48.890;9.190;2023-04-15T02:33:51;12.90;44.50
3770;DHT22;1900;48.890;9.190;2023-04-15T02:36:16;12.80;44.40
3770;DHT22;1900;48.890;9.190;2023-04-15T02:38:42;12.80;44.40
3770;DHT22;1900;48.890;9.190;2023-04-15T02:41:09;12.80;44.50
3770;DHT22;1900;48.890;9.190;2023-04-15T02:43:36;12.80;44.40
3770;DHT22;1900;48.890;9.190;2023-04-15T02:46:03;12.70;44.20
3770;DHT22;1900;48.890;9.190;2023-04-15T02:48:28;12.70;44.20
3770;DHT22;1900;48.890;9.190;2023-04-15T02:53:41;12.60;44.20
3770;DHT22;1900;48.890;9.190;2023-04-15T02:56:07;12.50;44.00
3770;DHT22;1900;48.890;9.190;2023-04-15T02:58:34;12.50;44.10
3770;DHT22;1900;48.890;9.190;2023-04-15T03:01:00;12.50;44.20
3770;DHT22;1900;48.890;9.190;2023-04-15T03:03:26;12.50;44.40
3770;DHT22;1900;48.890;9.190;2023-04-15T03:05:53;12.40;44.30
3770;DHT22;1900;48.890;9.190;2023-04-15T03:08:19;12.40;44.40
3770;DHT22;1900;48.890;9.190;2023-04-15T03:10:46;12.40;44.40
3770;DHT22;1900;48.890;9.190;2023-04-15T03:13:12;12.40;44.40
3770;DHT22;1900;48.890;9.190;2023-04-15T03:15:38;12.40;44.40
3770;DHT22;1900;48.890;9.190;2023-04-15T03:18:04;12.40;44.40
3770;DHT22;1900;48.890;9.190;2023-04-15T03:20:30;12.40;44.40
3770;DHT22;1900;48.890;9.190;2023-04-15T03:22:55;12.30;44.30
3770;DHT22;1900;48.890;9.190;2023-04-15T03:25:23;12.30;44.30
3770;DHT22;1900;48.890;9.190;2023-04-15T03:27:48;12.30;44.30
3770;DHT22;1900;48.890;9.190;2023-04-15T03:30:15;12.30;44.30
3770;DHT22;1900;48.890;9.190;2023-04-15T03:32:41;12.30;44.30
3770;DHT22;1900;48.890;9.190;2023-04-15T03:35:08;12.30;44.30
3770;DHT22;1900;48.890;9.190;2023-04-15T03:37:34;12.20;44.20
3770;DHT22;1900;48.890;9.190;2023-04-15T03:40:00;12.20;44.20
3770;DHT22;1900;48.890;9.190;2023-04-15T03:42:26;12.20;44.30
3770;DHT22;1900;48.890;9.190;2023-04-15T03:44:52;12.20;44.30
3770;DHT22;1900;48.890;9.190;2023-04-15T03:47:17;12.20;44.30
3770;DHT22;1900;48.890;9.190;2023-04-15T03:49:43;12.20;44.40
3770;DHT22;1900;48.890;9.190;2023-04-15T03:52:09;12.10;44.30
3770;DHT22;1900;48.890;9.190;2023-04-15T03:54:34;12.10;44.30
3770;DHT22;1900;48.890;9.190;2023-04-15T03:57:00;12.10;44.40
3770;DHT22;1900;48.890;9.190;2023-04-15T03:59:26;12.10;44.30
3770;DHT22;1900;48.890;9.190;2023-04-15T04:01:51;12.10;44.40
3770;DHT22;1900;48.890;9.190;2023-04-15T04:04:17;12.10;44.30
3770;DHT22;1900;48.890;9.190;2023-04-15T04:06:43;12.00;44.30
3770;DHT22;1900;48.890;9.190;2023-04-15T04:09:08;12.00;44.30
3770;DHT22;1900;48.890;9.190;2023-04-15T04:11:34;12.00;44.30
3770;DHT22;1900;48.890;9.190;2023-04-15T04:14:02;12.00;44.20
3770;DHT22;1900;48.890;9.190;2023-04-15T04:16:27;11.90;44.00
3770;DHT22;1900;48.890;9.190;2023-04-15T04:18:53;11.90;44.00
3770;DHT22;1900;48.890;9.190;2023-04-15T04:21:19;11.80;43.90
3770;DHT22;1900;48.890;9.190;2023-04-15T04:23:45;11.80;44.00
3770;DHT22;1900;48.890;9.190;2023-04-15T04:26:11;11.70;43.80
3770;DHT22;1900;48.890;9.190;2023-04-15T04:28:37;11.70;43.70
3770;DHT22;1900;48.890;9.190;2023-04-15T04:31:06;11.60;43.60
3770;DHT22;1900;48.890;9.190;2023-04-15T04:33:32;11.60;43.60
3770;DHT22;1900;48.890;9.190;2023-04-15T04:35:58;11.50;43.60
3770;DHT22;1900;48.890;9.190;2023-04-15T04:38:23;11.50;43.70
3770;DHT22;1900;48.890;9.190;2023-04-15T04:40:49;11.50;43.80
3770;DHT22;1900;48.890;9.190;2023-04-15T04:43:15;11.50;43.90
3770;DHT22;1900;48.890;9.190;2023-04-15T04:45:40;11.40;43.90
3770;DHT22;1900;48.890;9.190;2023-04-15T04:48:06;11.40;43.90
3770;DHT22;1900;48.890;9.190;2023-04-15T04:50:33;11.40;43.90
3770;DHT22;1900;48.890;9.190;2023-04-15T04:53:00;11.40;44.00
3770;DHT22;1900;48.890;9.190;2023-04-15T04:55:26;11.40;43.90
3770;DHT22;1900;48.890;9.190;2023-04-15T04:57:52;11.40;43.90
3770;DHT22;1900;48.890;9.190;2023-04-15T05:00:18;11.30;43.80
3770;DHT22;1900;48.890;9.190;2023-04-15T05:02:44;11.30;43.80
3770;DHT22;1900;48.890;9.190;2023-04-15T05:05:10;11.30;43.80
3770;DHT22;1900;48.890;9.190;2023-04-15T05:07:38;11.20;43.70
3770;DHT22;1900;48.890;9.190;2023-04-15T05:10:05;11.20;43.70
3770;DHT22;1900;48.890;9.190;2023-04-15T05:12:31;11.20;43.70
3770;DHT22;1900;48.890;9.190;2023-04-15T05:14:56;11.10;43.60
3770;DHT22;1900;48.890;9.190;2023-04-15T05:17:22;11.10;43.70
3770;DHT22;1900;48.890;9.190;2023-04-15T05:19:48;11.10;43.70
3770;DHT22;1900;48.890;9.190;2023-04-15T05:22:14;11.10;43.80
3770;DHT22;1900;48.890;9.190;2023-04-15T05:24:40;11.00;43.70
3770;DHT22;1900;48.890;9.190;2023-04-15T05:27:06;11.00;43.70
3770;DHT22;1900;48.890;9.190;2023-04-15T05:29:33;11.00;43.80
3770;DHT22;1900;48.890;9.190;2023-04-15T05:31:59;11.00;43.80
3770;DHT22;1900;48.890;9.190;2023-04-15T05:34:24;11.00;43.90
3770;DHT22;1900;48.890;9.190;2023-04-15T05:36:51;11.00;44.00
3770;DHT22;1900;48.890;9.190;2023-04-15T05:39:17;10.90;43.90
3770;DHT22;1900;48.890;9.190;2023-04-15T05:41:43;10.90;43.80
3770;DHT22;1900;48.890;9.190;2023-04-15T05:44:09;10.90;43.80
3770;DHT22;1900;48.890;9.190;2023-04-15T05:46:34;10.90;43.80
3770;DHT22;1900;48.890;9.190;2023-04-15T05:49:00;10.80;43.70
3770;DHT22;1900;48.890;9.190;2023-04-15T05:51:26;10.80;43.70
3770;DHT22;1900;48.890;9.190;2023-04-15T05:53:52;10.80;43.80
3770;DHT22;1900;48.890;9.190;2023-04-15T05:56:17;10.80;43.90
3770;DHT22;1900;48.890;9.190;2023-04-15T05:58:44;10.80;44.00
3770;DHT22;1900;48.890;9.190;2023-04-15T06:01:10;10.80;44.00
3770;DHT22;1900;48.890;9.190;2023-04-15T06:03:37;10.80;44.00
3770;DHT22;1900;48.890;9.190;2023-04-15T06:06:03;10.80;44.10
3770;DHT22;1900;48.890;9.190;2023-04-15T06:08:29;10.80;44.10
3770;DHT22;1900;48.890;9.190;2023-04-15T06:10:54;10.90;44.20
3770;DHT22;1900;48.890;9.190;2023-04-15T06:13:20;10.90;44.30
3770;DHT22;1900;48.890;9.190;2023-04-15T06:15:46;10.90;44.40
3770;DHT22;1900;48.890;9.190;2023-04-15T06:18:11;10.90;44.40
3770;DHT22;1900;48.890;9.190;2023-04-15T06:20:37;11.00;44.50
3770;DHT22;1900;48.890;9.190;2023-04-15T06:23:03;11.00;44.50
3770;DHT22;1900;48.890;9.190;2023-04-15T06:25:29;11.00;44.60
3770;DHT22;1900;48.890;9.190;2023-04-15T06:27:54;11.10;44.70
3770;DHT22;1900;48.890;9.190;2023-04-15T06:30:20;11.10;44.80
3770;DHT22;1900;48.890;9.190;2023-04-15T06:32:46;11.20;45.10
3770;DHT22;1900;48.890;9.190;2023-04-15T06:35:11;11.20;45.20
3770;DHT22;1900;48.890;9.190;2023-04-15T06:37:38;11.30;45.30
3770;DHT22;1900;48.890;9.190;2023-04-15T06:40:04;11.40;45.40
3770;DHT22;1900;48.890;9.190;2023-04-15T06:42:30;11.50;45.50
3770;DHT22;1900;48.890;9.190;2023-04-15T06:44:56;11.50;45.50
3770;DHT22;1900;48.890;9.190;2023-04-15T06:47:22;11.60;45.60
3770;DHT22;1900;48.890;9.190;2023-04-15T06:49:48;11.60;45.80
3770;DHT22;1900;48.890;9.190;2023-04-15T06:52:13;11.70;45.90
3770;DHT22;1900;48.890;9.190;2023-04-15T06:54:41;11.80;46.00
3770;DHT22;1900;48.890;9.190;2023-04-15T06:57:07;11.90;46.00
3770;DHT22;1900;48.890;9.190;2023-04-15T06:59:33;11.90;46.00
3770;DHT22;1900;48.890;9.190;2023-04-15T07:02:00;12.00;46.10
3770;DHT22;1900;48.890;9.190;2023-04-15T07:04:26;12.10;46.30
3770;DHT22;1900;48.890;9.190;2023-04-15T07:06:52;12.10;46.80
3770;DHT22;1900;48.890;9.190;2023-04-15T07:09:21;12.20;46.30
3770;DHT22;1900;48.890;9.190;2023-04-15T07:11:46;12.30;46.40
3770;DHT22;1900;48.890;9.190;2023-04-15T07:14:12;12.30;46.40
3770;DHT22;1900;48.890;9.190;2023-04-15T07:16:38;12.40;46.40
3770;DHT22;1900;48.890;9.190;2023-04-15T07:19:03;12.40;46.40
3770;DHT22;1900;48.890;9.190;2023-04-15T07:21:29;12.50;46.50
3770;DHT22;1900;48.890;9.190;2023-04-15T07:23:54;12.50;46.50
3770;DHT22;1900;48.890;9.190;2023-04-15T07:26:20;12.50;46.40
3770;DHT22;1900;48.890;9.190;2023-04-15T07:28:46;12.60;46.50
3770;DHT22;1900;48.890;9.190;2023-04-15T07:31:12;12.60;46.60
3770;DHT22;1900;48.890;9.190;2023-04-15T07:33:40;12.60;46.60
3770;DHT22;1900;48.890;9.190;2023-04-15T07:36:06;12.70;46.70
3770;DHT22;1900;48.890;9.190;2023-04-15T07:38:31;12.80;46.90
3770;DHT22;1900;48.890;9.190;2023-04-15T07:40:58;12.90;47.00
3770;DHT22;1900;48.890;9.190;2023-04-15T07:43:24;12.90;47.20
3770;DHT22;1900;48.890;9.190;2023-04-15T07:45:49;13.00;47.40
3770;DHT22;1900;48.890;9.190;2023-04-15T07:48:15;13.10;47.50
3770;DHT22;1900;48.890;9.190;2023-04-15T07:50:41;13.20;47.70
3770;DHT22;1900;48.890;9.190;2023-04-15T07:53:07;13.30;47.80
3770;DHT22;1900;48.890;9.190;2023-04-15T07:55:33;13.50;48.10
3770;DHT22;1900;48.890;9.190;2023-04-15T07:57:59;13.60;48.20
3770;DHT22;1900;48.890;9.190;2023-04-15T08:00:24;13.70;48.40
3770;DHT22;1900;48.890;9.190;2023-04-15T08:02:51;13.80;48.50
3770;DHT22;1900;48.890;9.190;2023-04-15T08:05:18;14.00;48.70
3770;DHT22;1900;48.890;9.190;2023-04-15T08:07:44;14.10;48.80
3770;DHT22;1900;48.890;9.190;2023-04-15T08:10:10;14.10;48.80
3770;DHT22;1900;48.890;9.190;2023-04-15T08:12:36;14.30;49.00
3770;DHT22;1900;48.890;9.190;2023-04-15T08:15:03;14.40;49.20
3770;DHT22;1900;48.890;9.190;2023-04-15T08:17:28;14.50;49.30
3770;DHT22;1900;48.890;9.190;2023-04-15T08:19:54;14.70;49.50
3770;DHT22;1900;48.890;9.190;2023-04-15T08:22:20;14.80;49.50
3770;DHT22;1900;48.890;9.190;2023-04-15T08:24:46;14.90;49.60
3770;DHT22;1900;48.890;9.190;2023-04-15T08:27:11;15.00;49.70
3770;DHT22;1900;48.890;9.190;2023-04-15T08:29:38;15.20;49.70
3770;DHT22;1900;48.890;9.190;2023-04-15T08:32:04;15.20;49.70
3770;DHT22;1900;48.890;9.190;2023-04-15T08:34:30;15.40;50.10
3770;DHT22;1900;48.890;9.190;2023-04-15T08:36:56;15.50;50.20
3770;DHT22;1900;48.890;9.190;2023-04-15T08:39:22;15.60;50.20
3770;DHT22;1900;48.890;9.190;2023-04-15T08:41:51;15.70;50.20
3770;DHT22;1900;48.890;9.190;2023-04-15T08:44:20;15.90;50.20
3770;DHT22;1900;48.890;9.190;2023-04-15T08:46:47;15.90;49.90
3770;DHT22;1900;48.890;9.190;2023-04-15T08:49:13;16.10;50.00
3770;DHT22;1900;48.890;9.190;2023-04-15T08:51:40;16.10;50.20
3770;DHT22;1900;48.890;9.190;2023-04-15T08:54:07;16.20;50.40
3770;DHT22;1900;48.890;9.190;2023-04-15T08:56:37;16.30;50.40
3770;DHT22;1900;48.890;9.190;2023-04-15T08:59:03;16.40;50.20
3770;DHT22;1900;48.890;9.190;2023-04-15T09:01:31;16.50;50.30
3770;DHT22;1900;48.890;9.190;2023-04-15T09:03:58;16.60;50.50
3770;DHT22;1900;48.890;9.190;2023-04-15T09:06:24;16.70;50.80
3770;DHT22;1900;48.890;9.190;2023-04-15T09:08:51;16.90;51.30
3770;DHT22;1900;48.890;9.190;2023-04-15T09:11:17;17.00;51.50
3770;DHT22;1900;48.890;9.190;2023-04-15T09:13:44;17.20;51.60
3770;DHT22;1900;48.890;9.190;2023-04-15T09:16:10;17.30;51.70
3770;DHT22;1900;48.890;9.190;2023-04-15T09:18:37;17.40;51.70
3770;DHT22;1900;48.890;9.190;2023-04-15T09:23:31;17.70;51.70
3770;DHT22;1900;48.890;9.190;2023-04-15T09:25:57;17.80;51.60
3770;DHT22;1900;48.890;9.190;2023-04-15T09:28:24;17.90;51.60
3770;DHT22;1900;48.890;9.190;2023-04-15T09:30:55;18.00;51.70
3770;DHT22;1900;48.890;9.190;2023-04-15T09:33:22;18.10;51.80
3770;DHT22;1900;48.890;9.190;2023-04-15T09:35:56;18.20;51.90
3770;DHT22;1900;48.890;9.190;2023-04-15T09:38:22;18.30;51.70
3770;DHT22;1900;48.890;9.190;2023-04-15T09:40:48;18.30;51.30
3770;DHT22;1900;48.890;9.190;2023-04-15T09:43:13;18.30;51.10
3770;DHT22;1900;48.890;9.190;2023-04-15T09:45:50;18.40;51.30
3770;DHT22;1900;48.890;9.190;2023-04-15T09:48:19;18.40;51.30
3770;DHT22;1900;48.890;9.190;2023-04-15T09:50:46;18.40;51.40
3770;DHT22;1900;48.890;9.190;2023-04-15T09:53:20;18.50;51.40
3770;DHT22;1900;48.890;9.190;2023-04-15T09:58:30;18.60;51.10
3770;DHT22;1900;48.890;9.190;2023-04-15T10:00:58;18.60;51.10
3770;DHT22;1900;48.890;9.190;2023-04-15T10:03:30;18.60;51.20
3770;DHT22;1900;48.890;9.190;2023-04-15T10:05:58;18.70;51.40
3770;DHT22;1900;48.890;9.190;2023-04-15T10:08:29;18.70;51.40
3770;DHT22;1900;48.890;9.190;2023-04-15T10:10:55;18.80;51.50
3770;DHT22;1900;48.890;9.190;2023-04-15T10:13:27;18.80;51.50
3770;DHT22;1900;48.890;9.190;2023-04-15T10:15:59;18.90;51.60
3770;DHT22;1900;48.890;9.190;2023-04-15T10:18:26;19.00;51.80
3770;DHT22;1900;48.890;9.190;2023-04-15T10:20:53;19.10;52.00
3770;DHT22;1900;48.890;9.190;2023-04-15T10:23:19;19.20;52.00
3770;DHT22;1900;48.890;9.190;2023-04-15T10:25:46;19.20;51.50
3770;DHT22;1900;48.890;9.190;2023-04-15T10:28:14;19.30;51.20
3770;DHT22;1900;48.890;9.190;2023-04-15T10:30:41;19.30;51.30
3770;DHT22;1900;48.890;9.190;2023-04-15T10:33:08;19.30;51.20
3770;DHT22;1900;48.890;9.190;2023-04-15T10:35:36;19.40;51.40
3770;DHT22;1900;48.890;9.190;2023-04-15T10:38:01;19.40;51.40
3770;DHT22;1900;48.890;9.190;2023-04-15T10:40:31;19.50;51.50
3770;DHT22;1900;48.890;9.190;2023-04-15T10:43:01;19.60;51.60
3770;DHT22;1900;48.890;9.190;2023-04-15T10:45:34;19.60;51.60
3770;DHT22;1900;48.890;9.190;2023-04-15T10:48:02;19.70;51.70
3770;DHT22;1900;48.890;9.190;2023-04-15T10:50:30;19.80;51.80
3770;DHT22;1900;48.890;9.190;2023-04-15T10:52:57;19.80;51.40
3770;DHT22;1900;48.890;9.190;2023-04-15T10:55:28;19.90;51.70
3770;DHT22;1900;48.890;9.190;2023-04-15T10:58:00;19.90;51.90
3770;DHT22;1900;48.890;9.190;2023-04-15T11:00:31;20.00;52.10
3770;DHT22;1900;48.890;9.190;2023-04-15T11:08:06;20.40;52.50
3770;DHT22;1900;48.890;9.190;2023-04-15T11:13:03;20.60;52.10
3770;DHT22;1900;48.890;9.190;2023-04-15T11:15:35;20.60;52.00
3770;DHT22;1900;48.890;9.190;2023-04-15T11:18:21;20.70;52.10
3770;DHT22;1900;48.890;9.190;2023-04-15T11:20:52;20.70;52.10
3770;DHT22;1900;48.890;9.190;2023-04-15T11:26:02;20.80;52.10
3770;DHT22;1900;48.890;9.190;2023-04-15T11:28:30;20.80;52.00
3770;DHT22;1900;48.890;9.190;2023-04-15T11:30:56;20.80;51.90
3770;DHT22;1900;48.890;9.190;2023-04-15T11:33:23;20.80;51.90
3770;DHT22;1900;48.890;9.190;2023-04-15T11:35:52;20.80;51.70
3770;DHT22;1900;48.890;9.190;2023-04-15T11:38:19;20.80;51.40
3770;DHT22;1900;48.890;9.190;2023-04-15T11:40:46;20.80;51.60
3770;DHT22;1900;48.890;9.190;2023-04-15T11:43:14;20.80;51.70
3770;DHT22;1900;48.890;9.190;2023-04-15T11:48:16;20.90;51.70
3770;DHT22;1900;48.890;9.190;2023-04-15T11:50:43;20.90;51.60
3770;DHT22;1900;48.890;9.190;2023-04-15T11:53:09;20.90;51.20
3770;DHT22;1900;48.890;9.190;2023-04-15T11:55:52;20.80;50.50
3770;DHT22;1900;48.890;9.190;2023-04-15T11:58:23;20.80;50.30
3770;DHT22;1900;48.890;9.190;2023-04-15T12:00:57;20.70;50.30
3770;DHT22;1900;48.890;9.190;2023-04-15T12:03:44;20.60;50.50
3770;DHT22;1900;48.890;9.190;2023-04-15T12:06:31;20.60;50.60
3770;DHT22;1900;48.890;9.190;2023-04-15T12:09:15;20.50;50.40
3770;DHT22;1900;48.890;9.190;2023-04-15T12:11:44;20.50;50.50
3770;DHT22;1900;48.890;9.190;2023-04-15T12:14:12;20.50;50.40
3770;DHT22;1900;48.890;9.190;2023-04-15T12:16:43;20.40;49.90
3770;DHT22;1900;48.890;9.190;2023-04-15T12:19:12;20.30;49.60
3770;DHT22;1900;48.890;9.190;2023-04-15T12:21:40;20.20;49.40
3770;DHT22;1900;48.890;9.190;2023-04-15T12:24:08;20.10;49.40
3770;DHT22;1900;48.890;9.190;2023-04-15T12:29:06;19.80;49.10
3770;DHT22;1900;48.890;9.190;2023-04-15T12:31:36;19.60;48.90
3770;DHT22;1900;48.890;9.190;2023-04-15T12:34:02;19.40;48.50
3770;DHT22;1900;48.890;9.190;2023-04-15T12:36:29;19.30;48.60
3770;DHT22;1900;48.890;9.190;2023-04-15T12:39:01;19.10;48.40
3770;DHT22;1900;48.890;9.190;2023-04-15T12:41:27;19.00;48.50
3770;DHT22;1900;48.890;9.190;2023-04-15T12:43:53;18.80;48.50
3770;DHT22;1900;48.890;9.190;2023-04-15T12:46:19;18.70;48.70
3770;DHT22;1900;48.890;9.190;2023-04-15T12:48:44;18.60;48.50
3770;DHT22;1900;48.890;9.190;2023-04-15T12:51:10;18.50;48.70
3770;DHT22;1900;48.890;9.190;2023-04-15T12:53:36;18.50;48.90
3770;DHT22;1900;48.890;9.190;2023-04-15T12:56:02;18.40;49.00
3770;DHT22;1900;48.890;9.190;2023-04-15T12:58:27;18.40;48.90
3770;DHT22;1900;48.890;9.190;2023-04-15T13:00:54;18.30;48.80
3770;DHT22;1900;48.890;9.190;2023-04-15T13:03:19;18.20;48.80
3770;DHT22;1900;48.890;9.190;2023-04-15T13:05:45;18.20;49.00
3770;DHT22;1900;48.890;9.190;2023-04-15T13:08:11;18.20;49.20
3770;DHT22;1900;48.890;9.190;2023-04-15T13:10:36;18.20;49.30
3770;DHT22;1900;48.890;9.190;2023-04-15T13:13:03;18.20;49.30
3770;DHT22;1900;48.890;9.190;2023-04-15T13:15:29;18.10;49.10
3770;DHT22;1900;48.890;9.190;2023-04-15T13:17:54;18.10;49.20
3770;DHT22;1900;48.890;9.190;2023-04-15T13:20:21;18.10;49.10
3770;DHT22;1900;48.890;9.190;2023-04-15T13:22:46;18.00;48.80
3770;DHT22;1900;48.890;9.190;2023-04-15T13:25:12;18.00;48.70
3770;DHT22;1900;48.890;9.190;2023-04-15T13:27:38;18.00;48.70
3770;DHT22;1900;48.890;9.190;2023-04-15T13:30:04;17.90;48.60
3770;DHT22;1900;48.890;9.190;2023-04-15T13:32:30;17.90;48.60
3770;DHT22;1900;48.890;9.190;2023-04-15T13:34:56;17.80;48.50
3770;DHT22;1900;48.890;9.190;2023-04-15T13:37:28;17.80;48.60
3770;DHT22;1900;48.890;9.190;2023-04-15T13:39:55;17.80;48.60
3770;DHT22;1900;48.890;9.190;2023-04-15T13:42:23;17.80;48.80
3770;DHT22;1900;48.890;9.190;2023-04-15T13:44:50;17.80;49.40
3770;DHT22;1900;48.890;9.190;2023-04-15T13:47:19;17.80;48.90
3770;DHT22;1900;48.890;9.190;2023-04-15T13:49:45;17.80;48.80
3770;DHT22;1900;48.890;9.190;2023-04-15T13:52:11;17.80;48.80
3770;DHT22;1900;48.890;9.190;2023-04-15T13:54:37;17.80;48.70
3770;DHT22;1900;48.890;9.190;2023-04-15T13:57:03;17.80;48.60
3770;DHT22;1900;48.890;9.190;2023-04-15T13:59:29;17.80;48.50
3770;DHT22;1900;48.890;9.190;2023-04-15T14:01:55;17.80;48.30
3770;DHT22;1900;48.890;9.190;2023-04-15T14:04:21;17.80;48.20
3770;DHT22;1900;48.890;9.190;2023-04-15T14:06:46;17.70;48.20
3770;DHT22;1900;48.890;9.190;2023-04-15T14:09:12;17.70;48.30
3770;DHT22;1900;48.890;9.190;2023-04-15T14:11:38;17.70;48.40
3770;DHT22;1900;48.890;9.190;2023-04-15T14:14:04;17.70;48.50
3770;DHT22;1900;48.890;9.190;2023-04-15T14:16:31;17.70;48.50
3770;DHT22;1900;48.890;9.190;2023-04-15T14:18:58;17.70;48.50
3770;DHT22;1900;48.890;9.190;2023-04-15T14:21:24;17.70;48.50
3770;DHT22;1900;48.890;9.190;2023-04-15T14:23:50;17.70;48.40
3770;DHT22;1900;48.890;9.190;2023-04-15T14:26:16;17.60;48.20
3770;DHT22;1900;48.890;9.190;2023-04-15T14:28:42;17.60;48.20
3770;DHT22;1900;48.890;9.190;2023-04-15T14:31:09;17.60;48.10
3770;DHT22;1900;48.890;9.190;2023-04-15T14:33:35;17.60;47.90
3770;DHT22;1900;48.890;9.190;2023-04-15T14:36:01;17.50;47.60
3770;DHT22;1900;48.890;9.190;2023-04-15T14:38:27;17.50;47.70
3770;DHT22;1900;48.890;9.190;2023-04-15T14:40:52;17.50;47.70
3770;DHT22;1900;48.890;9.190;2023-04-15T14:43:19;17.40;47.60
3770;DHT22;1900;48.890;9.190;2023-04-15T14:45:44;17.40;47.60
3770;DHT22;1900;48.890;9.190;2023-04-15T14:48:10;17.30;47.50
3770;DHT22;1900;48.890;9.190;2023-04-15T14:50:37;17.30;47.30
3770;DHT22;1900;48.890;9.190;2023-04-15T14:53:03;17.30;47.20
3770;DHT22;1900;48.890;9.190;2023-04-15T14:55:29;17.30;47.30
3770;DHT22;1900;48.890;9.190;2023-04-15T14:57:54;17.20;47.20
3770;DHT22;1900;48.890;9.190;2023-04-15T15:00:20;17.10;47.10
3770;DHT22;1900;48.890;9.190;2023-04-15T15:02:46;17.20;47.20
3770;DHT22;1900;48.890;9.190;2023-04-15T15:05:11;17.10;47.20
3770;DHT22;1900;48.890;9.190;2023-04-15T15:07:38;17.10;47.20
3770;DHT22;1900;48.890;9.190;2023-04-15T15:10:05;17.00;47.10
3770;DHT22;1900;48.890;9.190;2023-04-15T15:12:32;17.00;47.10
3770;DHT22;1900;48.890;9.190;2023-04-15T15:14:58;17.00;47.70
3770;DHT22;1900;48.890;9.190;2023-04-15T15:17:23;16.90;47.10
3770;DHT22;1900;48.890;9.190;2023-04-15T15:19:49;16.90;47.20
3770;DHT22;1900;48.890;9.190;2023-04-15T15:22:15;16.90;47.20
3770;DHT22;1900;48.890;9.190;2023-04-15T15:24:41;16.80;47.00
3770;DHT22;1900;48.890;9.190;2023-04-15T15:27:07;16.80;47.00
3770;DHT22;1900;48.890;9.190;2023-04-15T15:29:33;16.80;47.10
3770;DHT22;1900;48.890;9.190;2023-04-15T15:31:58;16.80;47.10
3770;DHT22;1900;48.890;9.190;2023-04-15T15:34:24;16.70;47.20
3770;DHT22;1900;48.890;9.190;2023-04-15T15:36:51;16.70;47.20
3770;DHT22;1900;48.890;9.190;2023-04-15T15:39:18;16.70;47.40
3770;DHT22;1900;48.890;9.190;2023-04-15T15:41:43;16.70;47.30
3770;DHT22;1900;48.890;9.190;2023-04-15T15:44:09;16.70;47.40
3770;DHT22;1900;48.890;9.190;2023-04-15T15:46:35;16.70;48.00
3770;DHT22;1900;48.890;9.190;2023-04-15T15:49:02;16.70;47.40
3770;DHT22;1900;48.890;9.190;2023-04-15T15:51:28;16.70;47.40
3770;DHT22;1900;48.890;9.190;2023-04-15T15:53:53;16.70;47.40
3770;DHT22;1900;48.890;9.190;2023-04-15T15:56:19;16.60;47.30
3770;DHT22;1900;48.890;9.190;2023-04-15T15:58:45;16.60;47.50
3770;DHT22;1900;48.890;9.190;2023-04-15T16:01:11;16.60;47.50
3770;DHT22;1900;48.890;9.190;2023-04-15T16:03:36;16.60;47.60
3770;DHT22;1900;48.890;9.190;2023-04-15T16:06:03;16.50;47.70
3770;DHT22;1900;48.890;9.190;2023-04-15T16:08:29;16.50;47.80
3770;DHT22;1900;48.890;9.190;2023-04-15T16:10:55;16.50;47.80
3770;DHT22;1900;48.890;9.190;2023-04-15T16:13:21;16.50;47.90
3770;DHT22;1900;48.890;9.190;2023-04-15T16:15:47;16.50;48.00
3770;DHT22;1900;48.890;9.190;2023-04-15T16:18:15;16.50;47.90
3770;DHT22;1900;48.890;9.190;2023-04-15T16:20:41;16.50;48.00
3770;DHT22;1900;48.890;9.190;2023-04-15T16:23:14;16.50;48.00